Warren, Wisconsin
Current Conditions -  °F | °C
As of 3:35 AM on Friday 24 Oct 2014 (Local Time) from KRNH Reporting Station
Haze Haze  
Wind Chill: 44°   Ceiling: 200
Heat Index: 48°   Visibility: 2mi
Dew Point: 48°   Wind: 7mph
Humidity: 100%   Direction: 160°SSE
Pressure: 29.97"   Gusts: NA
Location:  44.9927°N, 92.5555°W
Report Text: KRNH 240835Z AUTO 16006KT 2SM BR OVC002 09/09 A2997 RMK AO2 T00870087
Loading
Personal Weather Stations






























Interactive Weather Map
Tropical Storm Tracking
New forecast layout! Learn more

10-Day Weather Forecast

Advertisements
Track Severe Weather on mobile